Time;durP1;ratioP1;P1;durP2;ratioP2;P2;SDS_P1;SDS_P2;PMS_P1;PMS_P2;Temp;Humidity;BMP_temperature;BMP_pressure;BME280_temperature;BME280_humidity;BME280_pressure;Samples;Min_cycle;Max_cycle;Signal;HPM_P1;HPM_P2
2024/03/07 00:00:35;;;;;;;9.48;5.22;;;23.40;99.90;;;;;;4936653;29;20476;-49
2024/03/07 00:03:02;;;;;;;7.00;4.50;;;23.40;99.90;;;;;;4919711;29;20393;-48
2024/03/07 00:05:29;;;;;;;;;;;23.40;99.90;;;;;;4904393;29;20440;-48
2024/03/07 00:07:55;;;;;;;8.48;5.00;;;23.40;99.90;;;;;;4936634;29;19917;-48
2024/03/07 00:10:21;;;;;;;8.23;5.03;;;23.40;99.90;;;;;;4936448;29;20106;-48
2024/03/07 00:12:48;;;;;;;8.52;5.47;;;23.40;99.90;;;;;;4936771;29;20463;-48
2024/03/07 00:15:14;;;;;;;8.13;5.25;;;23.40;99.90;;;;;;4936316;29;20020;-48
2024/03/07 00:17:41;;;;;;;8.32;5.10;;;23.40;99.90;;;;;;4936408;29;20515;-48
2024/03/07 00:20:14;;;;;;;8.50;5.55;;;23.40;99.90;;;;;;4936460;29;20027;-49
2024/03/07 00:22:41;;;;;;;10.88;6.00;;;23.40;99.90;;;;;;4936192;29;20115;-48
2024/03/07 00:25:08;;;;;;;9.67;6.17;;;23.40;99.90;;;;;;4936381;29;20027;-48
2024/03/07 00:27:35;;;;;;;9.98;6.00;;;23.40;99.90;;;;;;4919475;29;20301;-48
2024/03/07 00:30:02;;;;;;;9.25;5.75;;;23.30;99.90;;;;;;4936173;29;20055;-48
2024/03/07 00:32:29;;;;;;;10.90;6.20;;;23.30;99.90;;;;;;4936258;29;20381;-48
2024/03/07 00:34:58;;;;;;;9.30;6.38;;;23.30;99.90;;;;;;4936078;29;20024;-48
2024/03/07 00:37:27;;;;;;;11.63;6.85;;;23.30;99.90;;;;;;4918750;29;20060;-47
2024/03/07 00:39:52;;;;;;;11.02;6.20;;;23.30;99.90;;;;;;4936067;29;20059;-48
2024/03/07 00:42:18;;;;;;;8.73;5.88;;;23.30;99.90;;;;;;4936051;29;20043;-48
2024/03/07 00:44:44;;;;;;;9.68;6.38;;;23.20;99.90;;;;;;4918668;29;20034;-48
2024/03/07 00:47:11;;;;;;;10.15;6.72;;;23.20;99.90;;;;;;4935756;29;20040;-49
2024/03/07 00:49:37;;;;;;;11.18;6.70;;;23.20;99.90;;;;;;4935794;29;20024;-49
2024/03/07 00:52:03;;;;;;;14.90;7.13;;;23.20;99.90;;;;;;4935688;29;20039;-47
2024/03/07 00:54:28;;;;;;;10.15;6.80;;;23.20;99.90;;;;;;4935784;29;20107;-48
2024/03/07 00:56:55;;;;;;;10.00;6.43;;;23.20;99.90;;;;;;4935414;29;20027;-48
2024/03/07 00:59:21;;;;;;;10.30;6.75;;;23.20;99.90;;;;;;4935734;29;20024;-48
2024/03/07 01:01:46;;;;;;;11.27;7.47;;;23.20;99.90;;;;;;4947798;23;20048;-41
2024/03/07 01:04:12;;;;;;;11.45;7.30;;;23.20;99.90;;;;;;4918487;29;20341;-41
2024/03/07 01:06:38;;;;;;;11.85;7.43;;;23.20;99.90;;;;;;4918137;29;20373;-41
2024/03/07 01:09:04;;;;;;;10.65;7.45;;;23.20;99.90;;;;;;4935281;29;20107;-41
2024/03/07 01:11:30;;;;;;;11.90;7.53;;;23.20;99.90;;;;;;4935269;29;20102;-41
2024/03/07 01:13:56;;;;;;;10.20;7.22;;;23.20;99.90;;;;;;4935185;29;20508;-41
2024/03/07 01:16:22;;;;;;;12.20;7.82;;;23.10;99.90;;;;;;4935532;29;20035;-42
2024/03/07 01:18:49;;;;;;;10.02;6.57;;;23.10;99.90;;;;;;4935251;29;20052;-41
2024/03/07 01:21:14;;;;;;;11.90;6.90;;;23.10;99.90;;;;;;4935497;29;20078;-41
2024/03/07 01:23:40;;;;;;;9.70;6.35;;;23.10;99.90;;;;;;4935232;29;20387;-41
2024/03/07 01:26:08;;;;;;;11.30;7.38;;;23.10;99.90;;;;;;4935032;29;20032;-41
2024/03/07 01:28:34;;;;;;;10.80;7.05;;;23.10;99.90;;;;;;4934901;29;20388;-41
2024/03/07 01:31:00;;;;;;;9.88;6.65;;;23.10;99.90;;;;;;4918035;29;20024;-41
2024/03/07 01:33:26;;;;;;;9.27;6.22;;;23.10;99.90;;;;;;4935202;29;20036;-41
2024/03/07 01:35:52;;;;;;;12.07;7.72;;;23.10;99.90;;;;;;4935272;29;20059;-41
2024/03/07 01:38:18;;;;;;;11.10;7.57;;;23.10;99.90;;;;;;4935038;29;20064;-41
2024/03/07 01:40:44;;;;;;;10.75;7.70;;;23.10;99.90;;;;;;4918096;29;20408;-41
2024/03/07 01:43:11;;;;;;;11.73;7.03;;;23.10;99.90;;;;;;4934940;29;20074;-41
2024/03/07 01:45:37;;;;;;;11.27;7.57;;;23.00;99.90;;;;;;4934872;29;20064;-41
2024/03/07 01:48:09;;;;;;;9.50;6.95;;;23.00;99.90;;;;;;4917942;29;20042;-41
2024/03/07 01:50:38;;;;;;;10.65;7.40;;;23.00;99.90;;;;;;4935116;29;20032;-41
2024/03/07 01:53:09;;;;;;;11.50;6.70;;;23.00;99.90;;;;;;4935049;29;20027;-41
2024/03/07 01:55:36;;;;;;;11.30;7.20;;;23.00;99.90;;;;;;4934914;29;20024;-41
2024/03/07 01:58:04;;;;;;;12.20;7.45;;;23.00;99.90;;;;;;4934958;29;20111;-41
2024/03/07 02:00:31;;;;;;;11.77;7.25;;;23.00;99.90;;;;;;4948336;23;20043;-60
2024/03/07 02:02:57;;;;;;;11.23;7.13;;;23.00;99.90;;;;;;4953179;28;20047;-62
2024/03/07 02:05:24;;;;;;;10.20;7.15;;;23.00;99.90;;;;;;4954060;29;20305;-62
2024/03/07 02:07:50;;;;;;;9.13;6.88;;;22.90;99.90;;;;;;4955136;28;20038;-62
2024/03/07 02:10:17;;;;;;;10.77;7.10;;;22.90;99.90;;;;;;4957560;28;20031;-62
2024/03/07 02:12:45;;;;;;;9.50;7.15;;;22.90;99.90;;;;;;4957699;29;20051;-62
2024/03/07 02:15:10;;;;;;;12.60;7.65;;;22.90;99.90;;;;;;4957657;28;20034;-63
2024/03/07 02:17:37;;;;;;;13.02;8.23;;;22.90;99.90;;;;;;4957518;28;20027;-62
2024/03/07 02:20:04;;;;;;;11.13;7.70;;;22.90;99.90;;;;;;4957448;29;20037;-63
2024/03/07 02:22:30;;;;;;;10.70;7.90;;;22.90;99.90;;;;;;4957492;29;20030;-63
2024/03/07 02:24:56;;;;;;;12.00;7.65;;;22.90;99.90;;;;;;4958049;29;20411;-63
2024/03/07 02:27:22;;;;;;;13.60;7.80;;;22.90;99.90;;;;;;4957469;29;20043;-62
2024/03/07 02:29:48;;;;;;;12.18;8.00;;;22.80;99.90;;;;;;4940189;29;20036;-62
2024/03/07 02:32:14;;;;;;;10.83;7.33;;;22.80;99.90;;;;;;4957470;29;20388;-63
2024/03/07 02:34:40;;;;;;;10.43;7.95;;;22.80;99.90;;;;;;4957259;28;20254;-63
2024/03/07 02:37:09;;;;;;;12.50;8.15;;;22.80;99.90;;;;;;4957126;28;20118;-63
2024/03/07 02:39:36;;;;;;;11.95;7.10;;;22.80;99.90;;;;;;4957756;29;20357;-63
2024/03/07 02:42:02;;;;;;;10.82;7.88;;;22.80;99.90;;;;;;4957329;29;20094;-62
2024/03/07 02:44:28;;;;;;;11.23;7.07;;;22.80;99.90;;;;;;4957443;28;20027;-63
2024/03/07 02:46:54;;;;;;;10.10;6.97;;;22.80;99.90;;;;;;4940125;29;20488;-62
2024/03/07 02:49:21;;;;;;;11.10;7.45;;;22.80;99.90;;;;;;4957327;29;20424;-63
2024/03/07 02:51:47;;;;;;;10.65;7.85;;;22.80;99.90;;;;;;4940243;29;20115;-63
2024/03/07 02:54:13;;;;;;;13.05;8.00;;;22.80;99.90;;;;;;4957446;28;20035;-63
2024/03/07 02:56:39;;;;;;;9.82;7.25;;;22.80;99.90;;;;;;4957095;28;20036;-63
2024/03/07 02:59:04;;;;;;;12.02;7.72;;;22.80;99.90;;;;;;4956844;28;20046;-62
2024/03/07 03:01:30;;;;;;;11.23;7.57;;;22.70;99.90;;;;;;4968883;23;20056;-40
2024/03/07 03:03:56;;;;;;;10.68;7.30;;;22.70;99.90;;;;;;4956850;28;20027;-40
2024/03/07 03:06:21;;;;;;;12.13;7.38;;;22.70;99.90;;;;;;4956769;28;20821;-41
2024/03/07 03:08:48;;;;;;;11.48;7.38;;;22.70;99.90;;;;;;4939588;29;20034;-41
2024/03/07 03:11:14;;;;;;;10.15;7.47;;;22.70;99.90;;;;;;4956836;29;20023;-42
2024/03/07 03:13:40;;;;;;;11.05;7.22;;;22.70;99.90;;;;;;4939447;29;20082;-41
2024/03/07 03:16:07;;;;;;;9.70;7.32;;;22.70;99.90;;;;;;4956674;29;20019;-40
2024/03/07 03:18:33;;;;;;;10.85;6.95;;;22.70;99.90;;;;;;4956606;28;20038;-41
2024/03/07 03:21:02;;;;;;;11.85;7.70;;;22.70;99.90;;;;;;4956540;28;20046;-40
2024/03/07 03:23:29;;;;;;;11.32;7.40;;;22.60;99.90;;;;;;4956753;28;20027;-41
2024/03/07 03:25:55;;;;;;;9.80;7.88;;;22.60;99.90;;;;;;4956590;29;20055;-41
2024/03/07 03:28:21;;;;;;;10.55;7.03;;;22.60;99.90;;;;;;4956575;29;20569;-40
2024/03/07 03:30:48;;;;;;;11.52;7.38;;;22.60;99.90;;;;;;4956436;28;20023;-41
2024/03/07 03:33:15;;;;;;;10.43;7.15;;;22.60;99.90;;;;;;4956362;29;20027;-40
2024/03/07 03:35:41;;;;;;;10.05;6.82;;;22.60;99.90;;;;;;4939101;29;20051;-41
2024/03/07 03:38:07;;;;;;;14.10;7.53;;;22.60;99.90;;;;;;4956187;29;20039;-40
2024/03/07 03:40:34;;;;;;;10.52;7.20;;;22.60;99.90;;;;;;4956593;28;20388;-40
2024/03/07 03:43:00;;;;;;;9.82;6.85;;;22.50;99.90;;;;;;4956576;28;20423;-40
2024/03/07 03:45:26;;;;;;;12.82;7.47;;;22.60;99.90;;;;;;4939206;29;20435;-41
2024/03/07 03:47:52;;;;;;;11.57;7.03;;;22.60;99.90;;;;;;4938894;29;20110;-41
2024/03/07 03:50:18;;;;;;;9.68;6.60;;;22.50;99.90;;;;;;4956031;28;20042;-40
2024/03/07 03:52:44;;;;;;;11.40;7.57;;;22.50;99.90;;;;;;4956056;29;20031;-40
2024/03/07 03:55:11;;;;;;;8.65;6.88;;;22.50;99.90;;;;;;4955911;28;20063;-41
2024/03/07 03:57:39;;;;;;;9.32;6.38;;;22.50;99.90;;;;;;4938816;29;20035;-41
2024/03/07 04:00:12;;;;;;;10.55;7.57;;;22.50;99.90;;;;;;4938729;29;20035;-40
2024/03/07 04:02:42;;;;;;;12.52;7.30;;;22.50;99.90;;;;;;4967430;23;20079;-61
2024/03/07 04:05:13;;;;;;;13.07;7.80;;;22.50;99.90;;;;;;4955886;29;20031;-61
2024/03/07 04:07:39;;;;;;;10.05;6.32;;;22.50;99.90;;;;;;4955564;28;20487;-62
2024/03/07 04:10:09;;;;;;;9.27;7.05;;;22.50;99.90;;;;;;4955707;28;20023;-62
2024/03/07 04:12:37;;;;;;;8.88;6.97;;;22.50;99.90;;;;;;4955748;29;20023;-62
2024/03/07 04:15:04;;;;;;;9.82;6.32;;;22.50;99.90;;;;;;4955564;28;20030;-63
2024/03/07 04:17:31;;;;;;;9.30;6.63;;;22.40;99.90;;;;;;4955553;29;20110;-63
2024/03/07 04:19:58;;;;;;;11.50;7.22;;;22.40;99.90;;;;;;4955458;28;20517;-63
2024/03/07 04:22:24;;;;;;;10.00;6.78;;;22.50;99.90;;;;;;4955299;28;20468;-62
2024/03/07 04:24:53;;;;;;;8.98;6.20;;;22.40;99.90;;;;;;4955363;29;20121;-63
2024/03/07 04:27:20;;;;;;;9.63;6.40;;;22.40;99.90;;;;;;4955113;28;20403;-63
2024/03/07 04:29:49;;;;;;;8.40;6.28;;;22.40;99.90;;;;;;4954691;28;20099;-62
2024/03/07 04:32:16;;;;;;;10.77;6.18;;;22.40;99.90;;;;;;4955038;29;20030;-62
2024/03/07 04:34:43;;;;;;;11.57;6.47;;;22.40;99.90;;;;;;4955187;28;20019;-62
2024/03/07 04:37:09;;;;;;;12.43;5.90;;;22.30;99.90;;;;;;4955257;28;20444;-62
2024/03/07 04:39:35;;;;;;;11.15;6.80;;;22.30;99.90;;;;;;4955226;29;20027;-62
2024/03/07 04:42:04;;;;;;;11.13;6.68;;;22.30;99.90;;;;;;4954957;29;20456;-62
2024/03/07 04:44:31;;;;;;;7.65;6.35;;;22.40;99.90;;;;;;4937726;28;20460;-62
2024/03/07 04:46:58;;;;;;;8.73;6.05;;;22.40;99.90;;;;;;4937659;29;20042;-62
2024/03/07 04:49:25;;;;;;;10.07;6.90;;;22.30;99.90;;;;;;4954833;28;20025;-62
2024/03/07 04:51:52;;;;;;;9.48;6.00;;;22.30;99.90;;;;;;4954746;28;20435;-62
2024/03/07 04:54:19;;;;;;;10.70;7.07;;;22.30;99.90;;;;;;4954841;29;20039;-62
2024/03/07 04:56:45;;;;;;;8.80;5.90;;;22.30;99.90;;;;;;4954675;29;20023;-64
2024/03/07 04:59:11;;;;;;;10.30;6.40;;;22.30;99.90;;;;;;4954841;28;20015;-64
2024/03/07 05:01:38;;;;;;;8.07;6.43;;;22.30;99.90;;;;;;4955163;28;20043;-64
2024/03/07 05:04:04;;;;;;;8.07;6.00;;;22.30;99.90;;;;;;4954658;28;20380;-65
2024/03/07 05:06:33;;;;;;;11.10;5.80;;;22.30;99.90;;;;;;4954641;29;20046;-65
2024/03/07 05:09:03;;;;;;;10.70;5.93;;;22.30;99.90;;;;;;4954486;28;20038;-65
2024/03/07 05:11:30;;;;;;;10.10;6.30;;;22.30;99.90;;;;;;4954494;28;20019;-65
2024/03/07 05:13:55;;;;;;;9.05;5.75;;;22.30;99.90;;;;;;4937210;29;20376;-62
2024/03/07 05:16:21;;;;;;;8.60;6.10;;;22.30;99.90;;;;;;4954402;29;20034;-62
2024/03/07 05:18:47;;;;;;;10.73;6.03;;;22.30;99.90;;;;;;4937106;29;20027;-62
2024/03/07 05:23:57;;;;;;;9.98;6.28;;;22.30;99.90;;;;;;4954133;28;20038;-64
2024/03/07 05:26:24;;;;;;;9.10;5.78;;;22.30;99.90;;;;;;4954244;28;20035;-63
2024/03/07 05:28:51;;;;;;;9.75;5.95;;;22.30;99.90;;;;;;4954210;28;20066;-62
2024/03/07 05:31:18;;;;;;;9.18;5.20;;;22.20;99.90;;;;;;4954220;28;20027;-63
2024/03/07 05:33:44;;;;;;;10.80;6.10;;;22.30;99.90;;;;;;4954082;29;20110;-63
2024/03/07 05:36:16;;;;;;;9.35;5.20;;;22.30;99.90;;;;;;4936943;28;20055;-63
2024/03/07 05:38:45;;;;;;;9.02;4.88;;;22.30;99.90;;;;;;4954151;28;20030;-64
2024/03/07 05:41:14;;;;;;;9.05;5.57;;;22.20;99.90;;;;;;4954329;29;20106;-64
2024/03/07 05:43:40;;;;;;;9.50;5.70;;;22.20;99.90;;;;;;4954144;28;20034;-62
2024/03/07 05:46:10;;;;;;;9.73;5.85;;;22.20;99.90;;;;;;4953854;28;20420;-63
2024/03/07 05:48:37;;;;;;;8.30;5.20;;;22.20;99.90;;;;;;4954018;28;20106;-63
2024/03/07 05:51:03;;;;;;;9.10;5.85;;;22.20;99.90;;;;;;4953854;28;20035;-64
2024/03/07 05:53:29;;;;;;;7.32;4.97;;;22.20;99.90;;;;;;4953902;28;20023;-63
2024/03/07 05:55:55;;;;;;;8.02;5.53;;;22.20;99.90;;;;;;4953902;28;20046;-63
2024/03/07 05:58:21;;;;;;;7.30;5.13;;;22.20;99.90;;;;;;4953781;29;20031;-63
2024/03/07 06:00:49;;;;;;;8.10;5.82;;;22.20;99.90;;;;;;4935862;28;20029;-63
2024/03/07 06:03:25;;;;;;;9.38;5.65;;;22.20;99.90;;;;;;4953544;28;20107;-64
2024/03/07 06:05:51;;;;;;;11.80;5.40;;;22.20;99.90;;;;;;4953371;28;20015;-64
2024/03/07 06:08:18;;;;;;;9.75;4.85;;;22.20;99.90;;;;;;4952439;28;20031;-63
2024/03/07 06:10:48;;;;;;;6.57;4.95;;;22.10;99.90;;;;;;4952992;29;20027;-63
2024/03/07 06:13:15;;;;;;;7.97;5.10;;;22.10;99.90;;;;;;4953860;29;20511;-63
2024/03/07 06:15:44;;;;;;;10.80;5.00;;;22.20;99.90;;;;;;4954362;29;20576;-63
2024/03/07 06:18:14;;;;;;;7.68;4.80;;;22.10;99.90;;;;;;4954056;28;20035;-62
2024/03/07 06:20:41;;;;;;;6.40;5.00;;;22.10;99.90;;;;;;4953941;28;20495;-64
2024/03/07 06:23:06;;;;;;;6.70;4.45;;;22.10;99.90;;;;;;4953805;28;20035;-63
2024/03/07 06:25:50;;;;;;;8.02;5.03;;;22.10;99.90;;;;;;4953677;28;20016;-63
2024/03/07 06:28:16;;;;;;;10.27;4.50;;;22.10;99.90;;;;;;4953643;29;20055;-63
2024/03/07 06:30:45;;;;;;;9.27;4.95;;;22.10;99.90;;;;;;4953833;28;20030;-63
2024/03/07 06:33:11;;;;;;;8.63;4.68;;;22.10;99.90;;;;;;4953999;29;20023;-64
2024/03/07 06:35:38;;;;;;;8.10;4.55;;;22.10;99.90;;;;;;4953669;28;20035;-63
2024/03/07 06:38:08;;;;;;;10.38;5.38;;;22.10;99.90;;;;;;4953585;28;20110;-63
2024/03/07 06:40:37;;;;;;;7.70;4.70;;;22.10;99.90;;;;;;4953742;29;20028;-64
2024/03/07 06:43:03;;;;;;;7.13;4.35;;;22.10;99.90;;;;;;4953662;28;20032;-64
2024/03/07 06:45:31;;;;;;;7.60;4.60;;;22.10;99.90;;;;;;4936421;29;20074;-64
2024/03/07 06:47:56;;;;;;;8.35;4.50;;;22.10;99.90;;;;;;4953486;28;20035;-63
2024/03/07 06:50:23;;;;;;;6.93;4.25;;;22.10;99.90;;;;;;4953367;28;20039;-64
2024/03/07 06:52:49;;;;;;;5.40;4.05;;;22.00;99.90;;;;;;4953598;28;20391;-65
2024/03/07 06:55:19;;;;;;;7.72;3.92;;;22.00;99.90;;;;;;4957108;28;20074;-64
2024/03/07 06:57:46;;;;;;;7.05;3.97;;;22.00;99.90;;;;;;4940076;29;20123;-62
2024/03/07 07:00:14;;;;;;;5.30;3.60;;;22.00;99.90;;;;;;4956791;29;20032;-62
2024/03/07 07:02:40;;;;;;;7.70;4.00;;;22.00;99.90;;;;;;4956789;28;20423;-63
2024/03/07 07:05:11;;;;;;;6.05;3.85;;;22.00;99.90;;;;;;4956802;29;20046;-62
2024/03/07 07:07:41;;;;;;;8.60;4.00;;;22.00;99.90;;;;;;4956616;29;20035;-62
2024/03/07 07:10:09;;;;;;;5.85;3.83;;;22.00;99.90;;;;;;4956725;29;20023;-62
2024/03/07 07:12:35;;;;;;;;;;;22.00;99.90;;;;;;4957055;29;20027;-63
2024/03/07 07:15:01;;;;;;;4.55;3.40;;;22.00;99.90;;;;;;4956608;28;19914;-63
2024/03/07 07:17:28;;;;;;;7.35;3.88;;;22.00;99.90;;;;;;4956461;29;20106;-63
2024/03/07 07:19:58;;;;;;;6.68;4.30;;;22.00;99.90;;;;;;4939478;29;20027;-63
2024/03/07 07:22:25;;;;;;;6.97;4.18;;;22.00;99.90;;;;;;4956424;28;20480;-63
2024/03/07 07:24:51;;;;;;;6.40;3.92;;;22.00;99.90;;;;;;4956378;28;20085;-63
2024/03/07 07:27:18;;;;;;;6.05;4.07;;;22.00;99.90;;;;;;4956405;28;20130;-62
2024/03/07 07:29:44;;;;;;;6.55;4.20;;;22.00;99.90;;;;;;4956415;28;20106;-62
2024/03/07 07:32:12;;;;;;;7.50;3.50;;;22.00;99.90;;;;;;4956219;28;20150;-62
2024/03/07 07:34:38;;;;;;;;;;;22.00;99.90;;;;;;4956558;29;20102;-62
2024/03/07 07:37:04;;;;;;;4.80;3.20;;;22.00;99.90;;;;;;4956225;29;19910;-64
2024/03/07 07:39:31;;;;;;;7.00;3.42;;;22.00;99.90;;;;;;4939176;29;20369;-64
2024/03/07 07:41:57;;;;;;;4.90;3.30;;;22.00;99.90;;;;;;4956052;29;20030;-65
2024/03/07 07:44:23;;;;;;;7.10;3.50;;;22.00;99.90;;;;;;4956006;29;20063;-64
2024/03/07 07:46:49;;;;;;;6.53;3.97;;;22.00;99.90;;;;;;4956086;29;20204;-62
2024/03/07 07:49:19;;;;;;;5.38;3.70;;;22.00;99.90;;;;;;4956157;28;20455;-63
2024/03/07 07:51:45;;;;;;;7.30;3.65;;;22.00;99.90;;;;;;4939340;29;20035;-63
2024/03/07 07:54:11;;;;;;;6.50;3.78;;;22.00;99.90;;;;;;4955802;29;20511;-63
2024/03/07 07:56:37;;;;;;;5.85;3.47;;;22.00;99.90;;;;;;4955911;28;20031;-63
2024/03/07 07:59:05;;;;;;;5.38;4.10;;;22.00;99.90;;;;;;4955709;28;20042;-63
2024/03/07 08:01:34;;;;;;;5.68;3.42;;;22.00;99.90;;;;;;4955680;29;20123;-63
2024/03/07 08:03:59;;;;;;;5.95;3.28;;;22.00;99.90;;;;;;4955661;28;20491;-62
2024/03/07 08:06:25;;;;;;;4.95;3.03;;;22.00;99.90;;;;;;4954443;28;20118;-63
2024/03/07 08:08:51;;;;;;;6.35;3.13;;;22.00;99.90;;;;;;4955762;28;20440;-63
2024/03/07 08:11:17;;;;;;;8.23;4.22;;;22.00;99.90;;;;;;4955708;28;20468;-62
2024/03/07 08:13:43;;;;;;;4.75;3.45;;;22.00;99.90;;;;;;4955484;29;20160;-62
2024/03/07 08:16:11;;;;;;;5.80;3.65;;;22.00;99.90;;;;;;4955380;29;20023;-62
2024/03/07 08:18:38;;;;;;;7.43;4.32;;;22.10;99.90;;;;;;4955495;28;20024;-62
2024/03/07 08:21:04;;;;;;;8.00;3.17;;;22.00;99.90;;;;;;4955420;29;20031;-62
2024/03/07 08:23:31;;;;;;;4.38;3.05;;;22.10;99.90;;;;;;4955318;28;20027;-62
2024/03/07 08:25:57;;;;;;;4.88;3.60;;;22.10;99.90;;;;;;4955198;28;20024;-62
2024/03/07 08:28:24;;;;;;;6.55;3.38;;;22.10;99.90;;;;;;4955530;29;20027;-62
2024/03/07 08:30:49;;;;;;;5.47;2.88;;;22.10;99.90;;;;;;4955727;28;20029;-63
2024/03/07 08:33:15;;;;;;;6.10;3.33;;;22.10;99.90;;;;;;4955366;28;20110;-62
2024/03/07 08:35:41;;;;;;;4.65;3.25;;;22.10;99.90;;;;;;4955239;28;20107;-62
2024/03/07 08:38:08;;;;;;;5.90;3.38;;;22.10;99.90;;;;;;4955149;29;20027;-63
2024/03/07 08:40:34;;;;;;;5.63;2.95;;;22.10;99.90;;;;;;4955153;28;20095;-62
2024/03/07 08:43:00;;;;;;;5.28;3.20;;;22.10;99.90;;;;;;4954985;29;20031;-61
2024/03/07 08:45:29;;;;;;;5.47;3.08;;;22.10;99.90;;;;;;4955049;28;20122;-62
2024/03/07 08:47:56;;;;;;;7.22;3.40;;;22.10;99.90;;;;;;4954883;28;20038;-61
2024/03/07 08:50:23;;;;;;;6.40;3.88;;;22.10;99.90;;;;;;4954963;29;20023;-63
2024/03/07 08:52:50;;;;;;;7.35;4.20;;;22.10;99.90;;;;;;4954903;28;20045;-64
2024/03/07 08:55:19;;;;;;;7.50;3.88;;;22.20;99.90;;;;;;4954698;28;20090;-64
2024/03/07 08:57:49;;;;;;;6.97;3.95;;;22.20;99.90;;;;;;4954763;28;20055;-64
2024/03/07 09:00:22;;;;;;;6.40;4.30;;;22.20;99.90;;;;;;4937562;29;20114;-63
2024/03/07 09:02:52;;;;;;;5.57;3.88;;;22.10;99.90;;;;;;4954388;28;20055;-63
2024/03/07 09:05:19;;;;;;;6.25;3.97;;;22.20;99.90;;;;;;4954555;29;20098;-63
2024/03/07 09:07:46;;;;;;;8.90;4.53;;;22.20;99.90;;;;;;4954474;28;20235;-63
2024/03/07 09:10:14;;;;;;;9.60;4.32;;;22.20;99.90;;;;;;4954623;29;20055;-63
2024/03/07 09:12:40;;;;;;;8.93;4.95;;;22.20;99.90;;;;;;4954568;29;20051;-64
2024/03/07 09:15:06;;;;;;;8.23;4.47;;;22.20;99.90;;;;;;4954347;28;20027;-63
2024/03/07 09:17:32;;;;;;;7.50;4.85;;;22.20;99.90;;;;;;4954199;28;20023;-63
2024/03/07 09:19:58;;;;;;;7.82;4.72;;;22.20;99.90;;;;;;4954487;28;20111;-63
2024/03/07 09:22:25;;;;;;;7.72;5.25;;;22.20;99.90;;;;;;4937616;29;20043;-63
2024/03/07 09:24:51;;;;;;;8.25;4.40;;;22.20;99.90;;;;;;4954337;28;20042;-63
2024/03/07 09:27:19;;;;;;;6.15;4.40;;;22.20;99.90;;;;;;4954329;28;20057;-64
2024/03/07 09:29:47;;;;;;;8.23;4.30;;;22.20;99.90;;;;;;4954220;28;20098;-64
2024/03/07 09:32:13;;;;;;;8.93;4.60;;;22.20;99.90;;;;;;4954274;28;20079;-63
2024/03/07 09:34:39;;;;;;;6.97;4.78;;;22.20;99.90;;;;;;4954169;28;20031;-64
2024/03/07 09:37:08;;;;;;;9.48;5.35;;;22.20;99.90;;;;;;4954115;29;20395;-63
2024/03/07 09:39:37;;;;;;;9.07;5.07;;;22.20;99.90;;;;;;4936862;29;20066;-62
2024/03/07 09:42:14;;;;;;;8.13;4.82;;;22.20;99.90;;;;;;4953991;28;20387;-63
2024/03/07 09:44:43;;;;;;;8.20;4.80;;;22.20;99.90;;;;;;4922572;28;20026;-62
2024/03/07 09:47:11;;;;;;;6.80;4.57;;;22.20;99.90;;;;;;4953954;29;20039;-63
2024/03/07 09:49:37;;;;;;;8.27;4.80;;;22.20;99.90;;;;;;4954139;28;20107;-63
2024/03/07 09:52:11;;;;;;;8.45;4.88;;;22.20;99.90;;;;;;4953973;28;20536;-62
2024/03/07 09:54:39;;;;;;;8.70;4.57;;;22.20;99.90;;;;;;4953924;29;20025;-62
2024/03/07 09:57:07;;;;;;;8.70;4.70;;;22.20;99.90;;;;;;4936793;29;20031;-62
2024/03/07 09:59:41;;;;;;;9.45;5.53;;;22.20;99.90;;;;;;4953965;28;20389;-63
2024/03/07 10:02:09;;;;;;;11.65;5.78;;;22.20;99.90;;;;;;4953690;28;20085;-63
2024/03/07 10:04:48;;;;;;;9.10;5.85;;;22.20;99.90;;;;;;4936737;28;20050;-64
2024/03/07 10:07:15;;;;;;;12.27;7.28;;;22.10;99.90;;;;;;4953862;29;20035;-61
2024/03/07 10:09:41;;;;;;;12.57;7.93;;;22.20;99.90;;;;;;4953888;28;20472;-63
2024/03/07 10:12:12;;;;;;;13.75;7.63;;;22.10;99.90;;;;;;4953861;28;20035;-61
2024/03/07 10:14:50;;;;;;;11.38;6.53;;;22.10;99.90;;;;;;4953906;29;20445;-60
2024/03/07 10:17:19;;;;;;;12.40;7.28;;;22.10;99.90;;;;;;4953683;28;20507;-61
2024/03/07 10:19:50;;;;;;;14.02;7.30;;;22.10;99.90;;;;;;4953682;28;20039;-60
2024/03/07 10:22:17;;;;;;;12.57;8.13;;;22.10;99.90;;;;;;4953684;29;20086;-61
2024/03/07 10:24:53;;;;;;;15.10;8.75;;;22.10;99.90;;;;;;4953775;28;20034;-62
2024/03/07 10:27:27;;;;;;;14.38;7.63;;;22.20;99.90;;;;;;4936539;28;20122;-62
2024/03/07 10:29:54;;;;;;;14.88;8.38;;;22.20;99.90;;;;;;4939423;29;20506;-62
2024/03/07 10:32:23;;;;;;;14.32;8.05;;;22.20;99.90;;;;;;4957491;28;20416;-62
2024/03/07 10:34:53;;;;;;;17.27;9.90;;;22.20;99.90;;;;;;4957514;29;20027;-62
2024/03/07 10:37:20;;;;;;;14.45;9.70;;;22.30;99.90;;;;;;4957349;28;20024;-62
2024/03/07 10:39:49;;;;;;;15.30;9.57;;;22.30;99.90;;;;;;4957438;29;20023;-62
2024/03/07 10:42:17;;;;;;;13.75;8.98;;;22.30;99.90;;;;;;4957313;28;20050;-62
2024/03/07 10:44:47;;;;;;;13.40;9.38;;;22.30;99.90;;;;;;4940278;29;20023;-62
2024/03/07 10:47:23;;;;;;;17.02;9.18;;;22.30;99.90;;;;;;4957199;28;20097;-62
2024/03/07 10:50:19;;;;;;;15.68;9.18;;;22.30;99.90;;;;;;4957141;28;20031;-62
2024/03/07 10:52:54;;;;;;;14.93;8.63;;;22.30;99.90;;;;;;4957084;29;20475;-63
2024/03/07 10:55:30;;;;;;;16.70;9.45;;;22.40;99.90;;;;;;4956864;29;20027;-62
2024/03/07 10:58:08;;;;;;;17.05;9.65;;;22.30;99.90;;;;;;4939726;29;20031;-62
2024/03/07 11:00:36;;;;;;;15.35;9.85;;;22.30;99.90;;;;;;4956754;28;20019;-61
2024/03/07 11:03:08;;;;;;;13.73;9.25;;;22.40;99.90;;;;;;4939800;29;20042;-62
2024/03/07 11:05:34;;;;;;;16.38;8.80;;;22.40;99.90;;;;;;4956584;28;20055;-63
2024/03/07 11:08:11;;;;;;;12.45;7.93;;;22.30;99.90;;;;;;4939695;29;20035;-62
2024/03/07 11:10:37;;;;;;;14.48;9.02;;;22.40;99.90;;;;;;4956736;29;20464;-62
2024/03/07 11:13:10;;;;;;;16.23;9.63;;;22.40;99.90;;;;;;4939486;29;20027;-62
2024/03/07 11:15:37;;;;;;;13.10;8.52;;;22.40;99.90;;;;;;4956458;29;20019;-61
2024/03/07 11:18:03;;;;;;;16.13;9.18;;;22.50;99.90;;;;;;4956847;29;20027;-62
2024/03/07 11:20:40;;;;;;;14.90;8.95;;;22.50;99.90;;;;;;4956642;28;20098;-61
2024/03/07 11:23:24;;;;;;;14.45;8.30;;;22.50;99.90;;;;;;4956649;28;20035;-61
2024/03/07 11:25:50;;;;;;;13.40;8.20;;;22.50;99.90;;;;;;4939128;29;20038;-62
2024/03/07 11:28:21;;;;;;;12.15;8.32;;;22.60;99.90;;;;;;4956441;29;20035;-62
2024/03/07 11:30:47;;;;;;;10.80;8.18;;;22.60;99.90;;;;;;4939000;28;20113;-62
2024/03/07 11:33:17;;;;;;;14.05;7.53;;;22.60;99.90;;;;;;4956416;28;20062;-62
2024/03/07 11:35:48;;;;;;;12.98;8.02;;;22.70;99.90;;;;;;4956402;28;20098;-62
2024/03/07 11:38:14;;;;;;;22.00;7.68;;;22.70;99.90;;;;;;4956174;28;20026;-61
2024/03/07 11:40:40;;;;;;;12.30;7.43;;;22.70;99.90;;;;;;4938787;28;20384;-61
2024/03/07 11:43:06;;;;;;;15.07;7.78;;;22.70;99.90;;;;;;4955845;28;20038;-61
2024/03/07 11:45:44;;;;;;;9.85;6.75;;;22.70;99.90;;;;;;4956315;29;20019;-62
2024/03/07 11:48:11;;;;;;;12.90;7.10;;;22.70;99.90;;;;;;4956182;29;20039;-62
2024/03/07 11:50:40;;;;;;;14.27;7.05;;;22.70;99.90;;;;;;4955925;28;20052;-61
2024/03/07 11:53:08;;;;;;;11.57;6.07;;;22.80;99.90;;;;;;4955985;29;20035;-62
2024/03/07 11:55:41;;;;;;;;;;;22.80;99.90;;;;;;4956269;28;20027;-62
2024/03/07 11:58:21;;;;;;;10.20;6.50;;;22.80;99.90;;;;;;4955833;28;20359;-61
2024/03/07 12:00:47;;;;;;;9.48;6.10;;;22.80;99.90;;;;;;4955738;29;20038;-62
2024/03/07 12:03:20;;;;;;;12.30;6.40;;;22.80;99.90;;;;;;4955792;28;20090;-63
2024/03/07 12:05:47;;;;;;;9.93;5.65;;;22.80;99.90;;;;;;4955809;29;20107;-62
2024/03/07 12:08:13;;;;;;;12.38;5.97;;;22.90;99.90;;;;;;4955556;28;20038;-61
2024/03/07 12:10:43;;;;;;;9.88;6.18;;;22.90;99.90;;;;;;4955569;28;20471;-61
2024/03/07 12:13:11;;;;;;;8.50;5.63;;;22.90;99.90;;;;;;4939002;29;20564;-61
2024/03/07 12:15:40;;;;;;;8.70;5.80;;;22.90;99.90;;;;;;4955635;29;20027;-62
2024/03/07 12:18:10;;;;;;;7.82;4.95;;;23.00;99.90;;;;;;4955622;29;20555;-61
2024/03/07 12:20:40;;;;;;;9.50;5.10;;;23.00;99.90;;;;;;4955595;28;20034;-61
2024/03/07 12:23:11;;;;;;;9.13;4.63;;;23.00;99.90;;;;;;4955652;29;20503;-62
2024/03/07 12:25:39;;;;;;;7.40;4.75;;;23.00;99.90;;;;;;4955600;29;20411;-62
2024/03/07 12:28:05;;;;;;;11.07;5.50;;;23.00;99.90;;;;;;4938194;29;20042;-61
2024/03/07 12:30:35;;;;;;;6.72;4.07;;;23.00;99.90;;;;;;4955480;29;20031;-62
2024/03/07 12:33:07;;;;;;;8.02;4.60;;;23.00;99.90;;;;;;4955222;28;20063;-61
2024/03/07 12:35:33;;;;;;;7.32;4.20;;;23.00;99.90;;;;;;4955195;28;20020;-61
2024/03/07 12:37:59;;;;;;;6.07;4.05;;;23.00;99.90;;;;;;4955136;28;20091;-62
2024/03/07 12:40:29;;;;;;;9.52;4.45;;;23.00;99.90;;;;;;4955192;29;20031;-62
2024/03/07 12:42:55;;;;;;;5.90;4.43;;;23.00;99.90;;;;;;4955116;28;20110;-62
2024/03/07 12:45:21;;;;;;;7.32;3.80;;;23.00;99.90;;;;;;4955140;29;20063;-61
2024/03/07 12:47:52;;;;;;;9.05;4.20;;;23.00;99.90;;;;;;4954980;28;20464;-62